Time;durP1;ratioP1;P1;durP2;ratioP2;P2;SDS_P1;SDS_P2;PMS_P1;PMS_P2;Temp;Humidity;BMP_temperature;BMP_pressure;BME280_temperature;BME280_humidity;BME280_pressure;Samples;Min_cycle;Max_cycle;Signal;HPM_P1;HPM_P2
2023/09/21 00:00:37;;;;;;;3.92;3.00;;;;;;;;;;6236858;28;20327;-69
2023/09/21 00:03:41;;;;;;;3.10;2.70;;;;;;;;;;6235208;28;20612;-71
2023/09/21 00:06:49;;;;;;;5.50;3.00;;;;;;;;;;6237345;28;20272;-69
2023/09/21 00:09:53;;;;;;;6.22;2.95;;;;;;;;;;6236558;28;20328;-70
2023/09/21 00:12:57;;;;;;;7.05;2.60;;;;;;;;;;6236609;28;20311;-70
2023/09/21 00:16:01;;;;;;;6.97;2.53;;;;;;;;;;6237233;28;20295;-70
2023/09/21 00:19:07;;;;;;;3.08;2.80;;;;;;;;;;6236360;28;20328;-69
2023/09/21 00:22:12;;;;;;;6.03;3.30;;;;;;;;;;6237197;28;20296;-69
2023/09/21 00:25:17;;;;;;;5.30;2.80;;;;;;;;;;6236237;28;20324;-70
2023/09/21 00:28:22;;;;;;;3.53;2.80;;;;;;;;;;6236291;28;20319;-68
2023/09/21 00:31:26;;;;;;;7.05;3.17;;;;;;;;;;6252054;28;20455;-70
2023/09/21 00:34:30;;;;;;;9.05;3.10;;;;;;;;;;6235854;28;20316;-68
2023/09/21 00:37:37;;;;;;;3.50;3.00;;;;;;;;;;6251187;28;20644;-69
2023/09/21 00:40:43;;;;;;;3.42;3.13;;;;;;;;;;6236202;28;20308;-69
2023/09/21 00:43:48;;;;;;;4.43;3.13;;;;;;;;;;6250749;28;20288;-69
2023/09/21 00:46:51;;;;;;;5.07;2.88;;;;;;;;;;6236350;28;20443;-69
2023/09/21 00:49:55;;;;;;;9.13;3.17;;;;;;;;;;6234156;28;20303;-69
2023/09/21 00:53:01;;;;;;;6.65;3.40;;;;;;;;;;6235347;28;20584;-69
2023/09/21 00:56:08;;;;;;;4.55;2.92;;;;;;;;;;6236096;28;20320;-68
2023/09/21 00:59:15;;;;;;;6.22;3.60;;;;;;;;;;6250460;28;20312;-69
2023/09/21 01:02:22;;;;;;;3.25;3.00;;;;;;;;;;6248863;28;20324;-68
2023/09/21 01:05:26;;;;;;;5.00;3.25;;;;;;;;;;6235564;28;20312;-66
2023/09/21 01:08:34;;;;;;;7.82;3.13;;;;;;;;;;6236041;28;20299;-68
2023/09/21 01:11:38;;;;;;;5.05;3.67;;;;;;;;;;6235757;28;20332;-71
2023/09/21 01:14:44;;;;;;;4.93;3.15;;;;;;;;;;6235290;28;20597;-70
2023/09/21 01:17:48;;;;;;;4.15;3.58;;;;;;;;;;6235177;28;20304;-70
2023/09/21 01:20:56;;;;;;;6.25;3.25;;;;;;;;;;6250685;28;20308;-69
2023/09/21 01:24:01;;;;;;;3.50;3.22;;;;;;;;;;6249764;28;20318;-72
2023/09/21 01:27:07;;;;;;;3.83;3.40;;;;;;;;;;6235366;28;20558;-69
2023/09/21 01:30:13;;;;;;;4.30;3.33;;;;;;;;;;6249936;28;20602;-69
2023/09/21 01:33:17;;;;;;;13.13;3.35;;;;;;;;;;6234965;28;20316;-69
2023/09/21 01:36:23;;;;;;;3.53;3.20;;;;;;;;;;6234742;28;20621;-70
2023/09/21 01:39:29;;;;;;;4.25;3.53;;;;;;;;;;6234224;28;20333;-69
2023/09/21 01:42:36;;;;;;;4.60;3.45;;;;;;;;;;6249918;28;20295;-69
2023/09/21 01:45:42;;;;;;;3.72;3.03;;;;;;;;;;6234268;28;20502;-71
2023/09/21 01:48:46;;;;;;;6.18;3.75;;;;;;;;;;6234429;28;20300;-70
2023/09/21 01:51:52;;;;;;;3.75;2.90;;;;;;;;;;6234841;28;20510;-69
2023/09/21 01:54:57;;;;;;;4.47;3.10;;;;;;;;;;6232807;28;20303;-69
2023/09/21 01:58:01;;;;;;;9.30;3.55;;;;;;;;;;6234081;28;20466;-70
2023/09/21 02:01:05;;;;;;;4.05;3.28;;;;;;;;;;6234224;28;20296;-68
2023/09/21 02:04:09;;;;;;;5.93;3.78;;;;;;;;;;6231527;28;20299;-69
2023/09/21 02:07:15;;;;;;;8.05;3.55;;;;;;;;;;6249453;28;20416;-70
2023/09/21 02:10:20;;;;;;;4.22;3.28;;;;;;;;;;6248851;28;20315;-70
2023/09/21 02:13:24;;;;;;;5.82;3.42;;;;;;;;;;6248667;28;20296;-69
2023/09/21 02:16:28;;;;;;;7.75;3.60;;;;;;;;;;6234553;28;20300;-69
2023/09/21 02:19:37;;;;;;;4.72;3.38;;;;;;;;;;6248547;28;20300;-71
2023/09/21 02:22:45;;;;;;;4.45;4.05;;;;;;;;;;6234181;28;20316;-69
2023/09/21 02:25:53;;;;;;;5.00;3.70;;;;;;;;;;6247880;28;20364;-70
2023/09/21 02:28:57;;;;;;;4.70;3.28;;;;;;;;;;6248035;28;20292;-70
2023/09/21 02:32:03;;;;;;;4.25;3.22;;;;;;;;;;6248812;28;20315;-69
2023/09/21 02:35:13;;;;;;;6.30;3.67;;;;;;;;;;6233854;28;20585;-69
2023/09/21 02:38:20;;;;;;;7.82;3.97;;;;;;;;;;6233159;28;20312;-69
2023/09/21 02:41:25;;;;;;;4.22;3.67;;;;;;;;;;6248467;28;20304;-70
2023/09/21 02:44:29;;;;;;;6.45;3.70;;;;;;;;;;6240128;28;20316;-69
2023/09/21 02:47:33;;;;;;;7.30;3.70;;;;;;;;;;6209015;28;20627;-71
2023/09/21 02:50:37;;;;;;;4.22;3.65;;;;;;;;;;6239615;28;20313;-70
2023/09/21 02:53:42;;;;;;;4.97;3.65;;;;;;;;;;6239898;28;20297;-71
2023/09/21 02:56:50;;;;;;;4.60;3.65;;;;;;;;;;6240398;28;20325;-70
2023/09/21 02:59:53;;;;;;;7.70;3.83;;;;;;;;;;6239588;28;20570;-70
2023/09/21 03:02:59;;;;;;;7.63;3.75;;;;;;;;;;6230250;28;20609;-70
2023/09/21 03:06:04;;;;;;;5.40;3.97;;;;;;;;;;6221387;28;20284;-70
2023/09/21 03:09:09;;;;;;;5.70;3.67;;;;;;;;;;6239453;28;20305;-69
2023/09/21 03:12:15;;;;;;;5.78;3.90;;;;;;;;;;6222942;28;20491;-71
2023/09/21 03:15:22;;;;;;;4.63;3.70;;;;;;;;;;6246644;28;20590;-69
2023/09/21 03:18:27;;;;;;;4.60;3.60;;;;;;;;;;6230982;28;20292;-70
2023/09/21 03:21:34;;;;;;;8.98;4.15;;;;;;;;;;6231065;28;20588;-71
2023/09/21 03:24:39;;;;;;;4.13;3.65;;;;;;;;;;6232521;28;20292;-69
2023/09/21 03:27:45;;;;;;;3.30;3.15;;;;;;;;;;6233078;28;20264;-70
2023/09/21 03:30:51;;;;;;;4.43;3.55;;;;;;;;;;6247168;28;20316;-71
2023/09/21 03:33:54;;;;;;;8.25;3.75;;;;;;;;;;6231981;28;20300;-71
2023/09/21 03:36:59;;;;;;;4.55;3.30;;;;;;;;;;6232639;28;20292;-70
2023/09/21 03:40:03;;;;;;;3.83;3.53;;;;;;;;;;6232110;28;20296;-69
2023/09/21 03:43:10;;;;;;;3.60;3.30;;;;;;;;;;6247522;28;20390;-71
2023/09/21 03:46:14;;;;;;;9.90;3.53;;;;;;;;;;6231928;28;20292;-69
2023/09/21 03:49:18;;;;;;;7.60;3.90;;;;;;;;;;6247227;28;20312;-69
2023/09/21 03:52:22;;;;;;;3.75;3.42;;;;;;;;;;6233010;28;20303;-70
2023/09/21 03:55:26;;;;;;;8.68;3.53;;;;;;;;;;6230678;28;20296;-69
2023/09/21 03:58:32;;;;;;;4.63;3.08;;;;;;;;;;6231380;28;20520;-69
2023/09/21 04:01:35;;;;;;;4.80;3.25;;;;;;;;;;6232973;28;20296;-70
2023/09/21 04:04:39;;;;;;;8.30;3.47;;;;;;;;;;6230506;28;20573;-69
2023/09/21 04:07:44;;;;;;;3.63;3.33;;;;;;;;;;6230621;28;20315;-69
2023/09/21 04:10:48;;;;;;;7.03;3.45;;;;;;;;;;6231707;28;20601;-69
2023/09/21 04:13:53;;;;;;;3.83;3.47;;;;;;;;;;6246606;28;20295;-69
2023/09/21 04:17:11;;;;;;;4.72;3.50;;;;;;;;;;6247273;28;20308;-69
2023/09/21 04:20:15;;;;;;;3.83;3.38;;;;;;;;;;6246668;28;20292;-70
2023/09/21 04:23:21;;;;;;;5.40;3.22;;;;;;;;;;6246729;28;20300;-69
2023/09/21 04:26:24;;;;;;;4.60;3.25;;;;;;;;;;6248306;28;20300;-70
2023/09/21 04:29:30;;;;;;;5.47;3.50;;;;;;;;;;6251364;28;20329;-69
2023/09/21 04:32:36;;;;;;;4.82;3.38;;;;;;;;;;6251379;28;20297;-68
2023/09/21 04:35:40;;;;;;;9.05;3.35;;;;;;;;;;6251245;28;20304;-70
2023/09/21 04:38:44;;;;;;;4.13;3.60;;;;;;;;;;6251064;28;20483;-70
2023/09/21 04:41:49;;;;;;;9.73;3.45;;;;;;;;;;6251722;28;20296;-70
2023/09/21 04:44:55;;;;;;;7.50;3.35;;;;;;;;;;6243240;28;20491;-68
2023/09/21 04:48:03;;;;;;;6.07;3.28;;;;;;;;;;6226024;28;20248;-69
2023/09/21 04:51:12;;;;;;;7.47;3.28;;;;;;;;;;6242371;28;20578;-69
2023/09/21 04:54:21;;;;;;;5.82;3.20;;;;;;;;;;6226098;28;20301;-72
2023/09/21 04:57:28;;;;;;;8.10;3.58;;;;;;;;;;6210622;28;20304;-69
2023/09/21 05:00:34;;;;;;;3.22;3.10;;;;;;;;;;6210324;28;20430;-69
2023/09/21 05:03:38;;;;;;;3.65;3.25;;;;;;;;;;6207587;28;20305;-69
2023/09/21 05:06:42;;;;;;;8.25;3.40;;;;;;;;;;6225971;28;20786;-69
2023/09/21 05:09:46;;;;;;;6.00;3.63;;;;;;;;;;6209389;28;20241;-69
2023/09/21 05:12:51;;;;;;;4.43;2.90;;;;;;;;;;6230891;28;20449;-69
2023/09/21 05:15:57;;;;;;;6.85;3.30;;;;;;;;;;6235067;28;20300;-71
2023/09/21 05:19:01;;;;;;;4.40;3.15;;;;;;;;;;6235114;28;20372;-69
2023/09/21 05:22:05;;;;;;;12.05;3.20;;;;;;;;;;6235338;28;20300;-69
2023/09/21 05:25:10;;;;;;;8.25;3.35;;;;;;;;;;6235663;28;20313;-68
2023/09/21 05:28:16;;;;;;;4.93;3.40;;;;;;;;;;6234936;28;20569;-68
2023/09/21 05:31:21;;;;;;;5.22;3.50;;;;;;;;;;6235284;28;20296;-69
2023/09/21 05:34:25;;;;;;;7.32;2.90;;;;;;;;;;6234545;28;20304;-68
2023/09/21 05:37:30;;;;;;;4.97;3.40;;;;;;;;;;6233847;28;20300;-72
2023/09/21 05:40:34;;;;;;;8.32;3.55;;;;;;;;;;6234189;28;20312;-69
2023/09/21 05:43:39;;;;;;;7.43;3.50;;;;;;;;;;6234301;28;20573;-69
2023/09/21 05:46:44;;;;;;;5.20;3.80;;;;;;;;;;6235034;28;20368;-68
2023/09/21 05:49:49;;;;;;;3.75;3.40;;;;;;;;;;6234356;28;20312;-67
2023/09/21 05:52:54;;;;;;;4.78;3.15;;;;;;;;;;6234933;28;20311;-67
2023/09/21 05:55:58;;;;;;;10.23;3.45;;;;;;;;;;6234055;28;20397;-68
2023/09/21 05:59:03;;;;;;;12.88;3.38;;;;;;;;;;6233806;28;20311;-69
2023/09/21 06:02:13;;;;;;;7.63;3.60;;;;;;;;;;6232541;28;20296;-67
2023/09/21 06:05:19;;;;;;;6.82;3.13;;;;;;;;;;6233870;28;20300;-68
2023/09/21 06:08:23;;;;;;;5.63;3.35;;;;;;;;;;6233909;28;20304;-68
2023/09/21 06:11:29;;;;;;;10.25;3.65;;;;;;;;;;6234188;28;20305;-68
2023/09/21 06:14:32;;;;;;;7.72;3.50;;;;;;;;;;6233651;28;20300;-68
2023/09/21 06:17:40;;;;;;;8.25;3.72;;;;;;;;;;6234336;28;20316;-70
2023/09/21 06:20:44;;;;;;;6.97;3.40;;;;;;;;;;6233862;28;20316;-70
2023/09/21 06:23:49;;;;;;;5.55;3.30;;;;;;;;;;6248404;28;20315;-70
2023/09/21 06:26:53;;;;;;;6.15;3.53;;;;;;;;;;6233938;28;20577;-69
2023/09/21 06:29:58;;;;;;;6.43;3.58;;;;;;;;;;6233382;28;20308;-70
2023/09/21 06:33:04;;;;;;;4.07;3.47;;;;;;;;;;6233351;28;20631;-71
2023/09/21 06:36:14;;;;;;;11.38;4.10;;;;;;;;;;6233355;28;20311;-69
2023/09/21 06:39:20;;;;;;;7.15;3.72;;;;;;;;;;6233231;28;20308;-70
2023/09/21 06:42:24;;;;;;;8.73;4.00;;;;;;;;;;6233892;28;20415;-69
2023/09/21 06:45:31;;;;;;;5.10;3.30;;;;;;;;;;6232872;28;20292;-69
2023/09/21 06:48:37;;;;;;;11.48;3.45;;;;;;;;;;6231963;28;20312;-69
2023/09/21 06:51:40;;;;;;;9.43;4.10;;;;;;;;;;6234205;28;20269;-71
2023/09/21 06:54:45;;;;;;;4.97;3.38;;;;;;;;;;6247997;28;20292;-70
2023/09/21 06:57:49;;;;;;;9.88;3.63;;;;;;;;;;6233361;28;20248;-69
2023/09/21 07:00:53;;;;;;;5.60;3.40;;;;;;;;;;6232835;28;20292;-69
2023/09/21 07:03:58;;;;;;;6.97;3.42;;;;;;;;;;6231078;28;20312;-69
2023/09/21 07:07:05;;;;;;;6.28;3.38;;;;;;;;;;6232720;28;20300;-70
2023/09/21 07:10:11;;;;;;;8.38;3.42;;;;;;;;;;6231976;28;20240;-69
2023/09/21 07:13:15;;;;;;;6.55;3.28;;;;;;;;;;6231885;28;20308;-68
2023/09/21 07:16:19;;;;;;;5.43;3.35;;;;;;;;;;6233343;28;20613;-69
2023/09/21 07:19:25;;;;;;;10.15;3.80;;;;;;;;;;6230782;28;20311;-68
2023/09/21 07:22:29;;;;;;;9.55;3.47;;;;;;;;;;6232337;28;20300;-69
2023/09/21 07:25:32;;;;;;;5.05;3.58;;;;;;;;;;6231894;28;20323;-68
2023/09/21 07:28:36;;;;;;;12.20;3.47;;;;;;;;;;6231823;28;20292;-69
2023/09/21 07:31:40;;;;;;;7.40;3.75;;;;;;;;;;6232333;28;20464;-69
2023/09/21 07:34:48;;;;;;;5.20;3.33;;;;;;;;;;6231605;28;20317;-69
2023/09/21 07:37:52;;;;;;;4.68;2.92;;;;;;;;;;6232281;28;20303;-68
2023/09/21 07:40:56;;;;;;;6.80;2.90;;;;;;;;;;6230127;28;20308;-68
2023/09/21 07:44:01;;;;;;;5.32;2.67;;;;;;;;;;6231726;28;20291;-68
2023/09/21 07:47:07;;;;;;;6.43;3.10;;;;;;;;;;6228640;28;20300;-68
2023/09/21 07:50:12;;;;;;;4.13;2.90;;;;;;;;;;6207484;28;20408;-69
2023/09/21 07:53:16;;;;;;;7.07;2.97;;;;;;;;;;6207425;28;20301;-70
2023/09/21 07:56:20;;;;;;;11.85;3.50;;;;;;;;;;6208052;28;20332;-69
2023/09/21 07:59:24;;;;;;;6.55;3.30;;;;;;;;;;6207516;28;20328;-69
2023/09/21 08:02:28;;;;;;;7.78;3.40;;;;;;;;;;6208953;28;20313;-69
2023/09/21 08:05:33;;;;;;;7.97;3.35;;;;;;;;;;6212053;28;20475;-70
2023/09/21 08:08:38;;;;;;;9.70;3.05;;;;;;;;;;6212273;28;20584;-70
2023/09/21 08:11:42;;;;;;;5.03;3.33;;;;;;;;;;6225102;28;20597;-69
2023/09/21 08:14:45;;;;;;;10.98;2.97;;;;;;;;;;6236798;28;20316;-68
2023/09/21 08:17:50;;;;;;;4.88;3.35;;;;;;;;;;6237848;28;20300;-71
2023/09/21 08:20:55;;;;;;;9.25;2.97;;;;;;;;;;6236146;28;20300;-69
2023/09/21 08:23:59;;;;;;;8.18;3.15;;;;;;;;;;6236027;28;20319;-68
2023/09/21 08:27:03;;;;;;;3.53;3.20;;;;;;;;;;6236920;28;20304;-70
2023/09/21 08:30:08;;;;;;;5.85;3.10;;;;;;;;;;6236229;28;20503;-70
2023/09/21 08:33:12;;;;;;;3.33;2.95;;;;;;;;;;6236442;28;20296;-71
2023/09/21 08:36:17;;;;;;;6.00;2.83;;;;;;;;;;6236226;28;20367;-70
2023/09/21 08:39:21;;;;;;;5.20;3.13;;;;;;;;;;6236335;28;20304;-69
2023/09/21 08:42:26;;;;;;;2.85;2.60;;;;;;;;;;6236220;28;20300;-68
2023/09/21 08:45:30;;;;;;;5.95;2.90;;;;;;;;;;6235556;28;20307;-70
2023/09/21 08:48:35;;;;;;;5.00;2.83;;;;;;;;;;6234194;28;20296;-69
2023/09/21 08:51:40;;;;;;;3.53;3.13;;;;;;;;;;6235825;28;20545;-69
2023/09/21 08:54:46;;;;;;;4.60;2.83;;;;;;;;;;6235327;28;20304;-69
2023/09/21 08:57:50;;;;;;;5.53;2.72;;;;;;;;;;6250684;28;20276;-69
2023/09/21 09:00:56;;;;;;;3.00;2.75;;;;;;;;;;6235535;28;20359;-70
2023/09/21 09:04:00;;;;;;;5.93;3.10;;;;;;;;;;6233395;28;20613;-69
2023/09/21 09:07:05;;;;;;;7.75;3.28;;;;;;;;;;6235277;28;20316;-70
2023/09/21 09:10:10;;;;;;;3.90;3.17;;;;;;;;;;6235057;28;20300;-70
2023/09/21 09:13:15;;;;;;;5.55;3.10;;;;;;;;;;6208852;28;20300;-69
2023/09/21 09:16:28;;;;;;;4.03;2.90;;;;;;;;;;6210836;28;20296;-70
2023/09/21 09:19:32;;;;;;;9.48;3.67;;;;;;;;;;6210259;28;20301;-69
2023/09/21 09:22:38;;;;;;;5.00;3.20;;;;;;;;;;6210553;28;20305;-68
2023/09/21 09:25:43;;;;;;;4.50;3.63;;;;;;;;;;6210005;28;20320;-68
2023/09/21 09:28:48;;;;;;;4.10;2.65;;;;;;;;;;6210082;28;20301;-71
2023/09/21 09:31:52;;;;;;;4.50;3.05;;;;;;;;;;6210637;28;20296;-70
2023/09/21 09:34:56;;;;;;;7.88;3.03;;;;;;;;;;6209548;28;20317;-68
2023/09/21 09:38:02;;;;;;;9.35;3.30;;;;;;;;;;6210433;28;20300;-68
2023/09/21 09:41:06;;;;;;;6.80;3.22;;;;;;;;;;6209928;28;20313;-70
2023/09/21 09:44:12;;;;;;;6.63;3.10;;;;;;;;;;6210230;28;20301;-69
2023/09/21 09:47:17;;;;;;;3.63;2.88;;;;;;;;;;6210142;28;20313;-69
2023/09/21 09:50:24;;;;;;;8.93;3.33;;;;;;;;;;6209909;28;20296;-70
2023/09/21 09:53:29;;;;;;;4.20;3.08;;;;;;;;;;6209828;28;20308;-69
2023/09/21 09:56:34;;;;;;;5.50;3.10;;;;;;;;;;6210142;28;20293;-69
2023/09/21 09:59:39;;;;;;;7.38;3.40;;;;;;;;;;6224215;28;20447;-69
2023/09/21 10:02:43;;;;;;;7.70;2.97;;;;;;;;;;6208550;28;20446;-69
2023/09/21 10:05:47;;;;;;;6.88;2.75;;;;;;;;;;6209308;28;20296;-71
2023/09/21 10:08:54;;;;;;;5.75;2.78;;;;;;;;;;6209118;28;20600;-71
2023/09/21 10:11:58;;;;;;;6.22;2.95;;;;;;;;;;6223715;28;20540;-72
2023/09/21 10:15:03;;;;;;;3.40;2.55;;;;;;;;;;6233544;28;20296;-69
2023/09/21 10:18:07;;;;;;;4.60;3.00;;;;;;;;;;6233666;28;20304;-69
2023/09/21 10:21:16;;;;;;;2.95;2.75;;;;;;;;;;6233364;28;20305;-68
2023/09/21 10:24:26;;;;;;;2.67;2.53;;;;;;;;;;6232780;28;20359;-70
2023/09/21 10:27:33;;;;;;;11.55;3.15;;;;;;;;;;6233840;28;20300;-71
2023/09/21 10:30:41;;;;;;;6.97;2.90;;;;;;;;;;6232062;28;20475;-68
2023/09/21 10:33:50;;;;;;;4.82;3.63;;;;;;;;;;6231952;28;20312;-68
2023/09/21 10:37:00;;;;;;;5.22;3.10;;;;;;;;;;6233088;28;20376;-68
2023/09/21 10:40:08;;;;;;;7.88;3.53;;;;;;;;;;6232821;28;20301;-67
2023/09/21 10:43:43;;;;;;;6.53;3.33;;;;;;;;;;6232581;28;20312;-69
2023/09/21 10:46:48;;;;;;;8.98;3.17;;;;;;;;;;6232522;28;20309;-70
2023/09/21 10:49:53;;;;;;;4.05;3.05;;;;;;;;;;6232126;28;20565;-68
2023/09/21 10:52:58;;;;;;;4.13;2.92;;;;;;;;;;6233064;28;20340;-70
2023/09/21 10:56:05;;;;;;;6.57;3.70;;;;;;;;;;6232786;28;20465;-68
2023/09/21 10:59:09;;;;;;;7.32;3.30;;;;;;;;;;6232698;28;20323;-69
2023/09/21 11:02:13;;;;;;;9.10;3.10;;;;;;;;;;6230881;28;20320;-69
2023/09/21 11:05:18;;;;;;;6.75;3.15;;;;;;;;;;6232775;28;20371;-69
2023/09/21 11:08:23;;;;;;;8.93;3.47;;;;;;;;;;6247624;28;20324;-69
2023/09/21 11:11:29;;;;;;;10.32;3.30;;;;;;;;;;6232674;28;20312;-69
2023/09/21 11:14:33;;;;;;;11.48;3.22;;;;;;;;;;6230242;28;20486;-69
2023/09/21 11:17:37;;;;;;;9.75;3.53;;;;;;;;;;6232716;28;20613;-68
2023/09/21 11:20:42;;;;;;;4.38;3.38;;;;;;;;;;6247730;28;20304;-71
2023/09/21 11:23:45;;;;;;;6.38;3.30;;;;;;;;;;6231293;28;20335;-69
2023/09/21 11:26:55;;;;;;;6.07;3.17;;;;;;;;;;6232662;28;20303;-69
2023/09/21 11:29:59;;;;;;;8.52;3.38;;;;;;;;;;6231964;28;20297;-69
2023/09/21 11:33:04;;;;;;;6.63;3.03;;;;;;;;;;6247126;28;20297;-68
2023/09/21 11:36:08;;;;;;;3.63;2.72;;;;;;;;;;6230810;28;20315;-68
2023/09/21 11:39:12;;;;;;;14.10;3.30;;;;;;;;;;6232050;28;20315;-69
2023/09/21 11:42:19;;;;;;;6.25;3.20;;;;;;;;;;6230580;28;20327;-70
2023/09/21 11:45:24;;;;;;;6.78;2.85;;;;;;;;;;6231672;28;20380;-71
2023/09/21 11:48:29;;;;;;;5.40;3.00;;;;;;;;;;6246274;28;20312;-70
2023/09/21 11:51:33;;;;;;;3.65;2.90;;;;;;;;;;6230990;28;20292;-69
2023/09/21 11:54:38;;;;;;;4.82;3.13;;;;;;;;;;6231629;28;20296;-68
2023/09/21 11:57:44;;;;;;;4.93;3.25;;;;;;;;;;6231878;28;20245;-68
2023/09/21 12:00:53;;;;;;;5.93;3.25;;;;;;;;;;6231125;28;20621;-70
2023/09/21 12:03:57;;;;;;;9.73;3.60;;;;;;;;;;6229911;28;20305;-69
2023/09/21 12:07:01;;;;;;;4.47;2.90;;;;;;;;;;6231702;28;20300;-69
2023/09/21 12:10:07;;;;;;;5.82;3.10;;;;;;;;;;6231354;28;20327;-68
2023/09/21 12:13:13;;;;;;;5.15;3.03;;;;;;;;;;6231800;28;20296;-68
2023/09/21 12:16:16;;;;;;;16.17;4.75;;;;;;;;;;6231642;28;20292;-68
2023/09/21 12:19:23;;;;;;;10.35;4.70;;;;;;;;;;6231568;28;20600;-68
2023/09/21 12:22:28;;;;;;;8.55;4.35;;;;;;;;;;6231961;28;20513;-70
2023/09/21 12:25:32;;;;;;;13.75;4.75;;;;;;;;;;6231740;28;20307;-70
2023/09/21 12:28:37;;;;;;;8.93;3.78;;;;;;;;;;6231555;28;20312;-69
2023/09/21 12:31:42;;;;;;;8.25;3.88;;;;;;;;;;6231937;28;20304;-69
2023/09/21 12:35:06;;;;;;;9.02;3.50;;;;;;;;;;6246569;28;20485;-69
2023/09/21 12:38:11;;;;;;;4.13;3.38;;;;;;;;;;6231723;28;20300;-69
2023/09/21 12:41:14;;;;;;;4.05;3.50;;;;;;;;;;6230696;28;20344;-69
2023/09/21 12:44:20;;;;;;;7.55;3.63;;;;;;;;;;6231235;28;20311;-69
2023/09/21 12:47:25;;;;;;;3.20;3.00;;;;;;;;;;6232862;28;20595;-69
2023/09/21 12:50:29;;;;;;;7.82;3.63;;;;;;;;;;6235598;28;20300;-71
2023/09/21 12:53:33;;;;;;;7.25;3.45;;;;;;;;;;6235630;28;20380;-69
2023/09/21 12:56:37;;;;;;;8.00;3.40;;;;;;;;;;6236360;28;20597;-72
2023/09/21 12:59:44;;;;;;;4.50;3.00;;;;;;;;;;6235446;28;20319;-69
2023/09/21 13:02:48;;;;;;;6.90;3.03;;;;;;;;;;6233892;28;20312;-69
2023/09/21 13:05:52;;;;;;;10.40;3.58;;;;;;;;;;6235337;28;20292;-69
2023/09/21 13:08:55;;;;;;;6.20;3.33;;;;;;;;;;6234827;28;20308;-70
2023/09/21 13:11:59;;;;;;;4.70;3.28;;;;;;;;;;6236099;28;20292;-71
2023/09/21 13:15:06;;;;;;;4.30;3.42;;;;;;;;;;6235163;28;20575;-70
2023/09/21 13:18:13;;;;;;;4.47;3.20;;;;;;;;;;6235735;28;20320;-69
2023/09/21 13:21:18;;;;;;;5.20;3.00;;;;;;;;;;6234657;28;20360;-70
2023/09/21 13:24:22;;;;;;;7.90;3.47;;;;;;;;;;6234924;28;20300;-69
2023/09/21 13:27:28;;;;;;;4.30;3.30;;;;;;;;;;6235289;28;20592;-70
2023/09/21 13:30:33;;;;;;;7.50;3.65;;;;;;;;;;6234124;28;20601;-70
2023/09/21 13:33:37;;;;;;;3.83;3.45;;;;;;;;;;6234565;28;20554;-70
2023/09/21 13:36:41;;;;;;;6.68;3.40;;;;;;;;;;6234429;28;20320;-69
2023/09/21 13:39:45;;;;;;;5.28;3.42;;;;;;;;;;6234161;28;20456;-71
2023/09/21 13:42:49;;;;;;;3.45;2.80;;;;;;;;;;6250099;28;20272;-70
2023/09/21 13:45:54;;;;;;;3.75;3.47;;;;;;;;;;6234239;28;20316;-69
2023/09/21 13:48:58;;;;;;;5.68;3.75;;;;;;;;;;6234120;28;20324;-70
2023/09/21 13:52:02;;;;;;;7.25;3.40;;;;;;;;;;6249669;28;20319;-69
2023/09/21 13:55:07;;;;;;;4.30;3.55;;;;;;;;;;6234340;28;20340;-68
2023/09/21 13:58:14;;;;;;;4.45;3.28;;;;;;;;;;6233654;28;20288;-68
2023/09/21 14:01:19;;;;;;;6.93;3.80;;;;;;;;;;6234374;28;20308;-68
2023/09/21 14:04:25;;;;;;;3.53;3.33;;;;;;;;;;6230680;28;20296;-69
2023/09/21 14:07:31;;;;;;;3.17;2.97;;;;;;;;;;6234410;28;20304;-71
2023/09/21 14:10:35;;;;;;;4.22;3.17;;;;;;;;;;6233757;28;20304;-70
2023/09/21 14:13:40;;;;;;;3.83;3.40;;;;;;;;;;6233770;28;20292;-69
2023/09/21 14:16:46;;;;;;;6.50;3.05;;;;;;;;;;6234418;28;20304;-70
2023/09/21 14:19:52;;;;;;;3.47;3.15;;;;;;;;;;6233825;28;20304;-69
2023/09/21 14:22:56;;;;;;;7.70;3.53;;;;;;;;;;6234194;28;20497;-71
2023/09/21 14:26:00;;;;;;;3.60;3.30;;;;;;;;;;6233405;28;20593;-69
2023/09/21 14:29:04;;;;;;;9.52;3.70;;;;;;;;;;6233343;28;20300;-71
2023/09/21 14:32:09;;;;;;;5.05;3.50;;;;;;;;;;6248793;28;20292;-69
2023/09/21 14:35:14;;;;;;;3.70;3.03;;;;;;;;;;6233081;28;20320;-69
2023/09/21 14:38:18;;;;;;;5.20;3.10;;;;;;;;;;6233385;28;20295;-71
2023/09/21 14:41:22;;;;;;;9.82;3.67;;;;;;;;;;6233634;28;20300;-68
2023/09/21 14:44:25;;;;;;;4.03;3.22;;;;;;;;;;6233172;28;20419;-69
2023/09/21 14:47:30;;;;;;;3.63;2.90;;;;;;;;;;6233455;28;20304;-70
2023/09/21 14:50:34;;;;;;;3.78;3.30;;;;;;;;;;6247871;28;20316;-69
2023/09/21 14:53:38;;;;;;;4.97;3.25;;;;;;;;;;6232692;28;20308;-69
2023/09/21 14:56:45;;;;;;;6.80;3.38;;;;;;;;;;6233270;28;20308;-70
2023/09/21 14:59:49;;;;;;;7.82;3.60;;;;;;;;;;6232845;28;20322;-69
2023/09/21 15:02:54;;;;;;;8.07;3.70;;;;;;;;;;6231286;28;20304;-70
2023/09/21 15:05:58;;;;;;;6.00;3.33;;;;;;;;;;6232687;28;20313;-70
2023/09/21 15:09:04;;;;;;;5.35;3.33;;;;;;;;;;6232827;28;20549;-69
2023/09/21 15:12:08;;;;;;;3.35;3.15;;;;;;;;;;6233201;28;20312;-71
2023/09/21 15:15:13;;;;;;;3.92;3.50;;;;;;;;;;6232643;28;20308;-69
2023/09/21 15:18:18;;;;;;;4.13;3.60;;;;;;;;;;6232837;28;20311;-69
2023/09/21 15:21:24;;;;;;;3.75;3.50;;;;;;;;;;6233052;28;20308;-68
2023/09/21 15:24:29;;;;;;;4.07;3.45;;;;;;;;;;6231763;28;20729;-69
2023/09/21 15:27:33;;;;;;;7.05;4.10;;;;;;;;;;6247170;28;20276;-69
2023/09/21 15:30:37;;;;;;;5.90;3.80;;;;;;;;;;6232437;28;20300;-68
2023/09/21 15:33:43;;;;;;;8.32;3.90;;;;;;;;;;6232285;28;20308;-68
2023/09/21 15:36:46;;;;;;;4.43;3.65;;;;;;;;;;6232769;28;20329;-68
2023/09/21 15:39:50;;;;;;;4.03;3.58;;;;;;;;;;6232292;28;20323;-69
2023/09/21 15:42:56;;;;;;;5.22;3.75;;;;;;;;;;6232687;28;20311;-69
2023/09/21 15:46:00;;;;;;;3.65;3.38;;;;;;;;;;6206235;28;20305;-70
2023/09/21 15:49:05;;;;;;;6.07;3.25;;;;;;;;;;6207480;28;20344;-69
2023/09/21 15:52:09;;;;;;;3.38;3.17;;;;;;;;;;6208649;28;20296;-70
2023/09/21 15:55:13;;;;;;;4.63;3.50;;;;;;;;;;6207607;28;20304;-70
2023/09/21 15:58:17;;;;;;;4.13;3.13;;;;;;;;;;6207621;28;20312;-69
2023/09/21 16:01:21;;;;;;;4.30;3.33;;;;;;;;;;6208672;28;20446;-71
2023/09/21 16:04:26;;;;;;;9.27;3.33;;;;;;;;;;6206091;28;20354;-70
2023/09/21 16:07:30;;;;;;;5.47;3.50;;;;;;;;;;6208316;28;20479;-69
2023/09/21 16:10:34;;;;;;;3.92;3.38;;;;;;;;;;6211225;28;20320;-71
2023/09/21 16:13:38;;;;;;;5.65;3.60;;;;;;;;;;6231644;28;20311;-70
2023/09/21 16:16:42;;;;;;;9.82;3.95;;;;;;;;;;6232401;28;20320;-72
2023/09/21 16:19:48;;;;;;;3.38;3.28;;;;;;;;;;6232181;28;20296;-70
2023/09/21 16:22:52;;;;;;;4.43;3.80;;;;;;;;;;6234218;28;20609;-71
2023/09/21 16:25:56;;;;;;;5.25;3.67;;;;;;;;;;6236088;28;20308;-71
2023/09/21 16:29:00;;;;;;;5.68;3.60;;;;;;;;;;6236846;28;20474;-71
2023/09/21 16:32:04;;;;;;;4.90;3.88;;;;;;;;;;6236414;28;20573;-70
2023/09/21 16:35:09;;;;;;;4.15;3.35;;;;;;;;;;6235612;28;20320;-70
2023/09/21 16:38:13;;;;;;;4.05;3.67;;;;;;;;;;6235949;28;20304;-72
2023/09/21 16:41:18;;;;;;;6.57;3.67;;;;;;;;;;6236723;28;20604;-69
2023/09/21 16:44:22;;;;;;;4.03;3.80;;;;;;;;;;6236216;28;20602;-72
2023/09/21 16:47:26;;;;;;;5.30;3.72;;;;;;;;;;6236821;28;20316;-72
2023/09/21 16:50:31;;;;;;;4.30;3.90;;;;;;;;;;6236858;28;20592;-73
2023/09/21 16:53:35;;;;;;;4.00;3.58;;;;;;;;;;6236160;28;20303;-69
2023/09/21 16:56:40;;;;;;;5.75;4.05;;;;;;;;;;6236626;28;20332;-71
2023/09/21 16:59:44;;;;;;;7.03;3.92;;;;;;;;;;6235517;28;20308;-70
2023/09/21 17:02:48;;;;;;;3.28;2.95;;;;;;;;;;6234631;28;20300;-70
2023/09/21 17:05:54;;;;;;;4.85;3.30;;;;;;;;;;6235860;28;20573;-72
2023/09/21 17:08:58;;;;;;;4.97;3.63;;;;;;;;;;6235853;28;20432;-70
2023/09/21 17:12:04;;;;;;;4.97;3.90;;;;;;;;;;6236372;28;20313;-73
2023/09/21 17:15:09;;;;;;;7.10;4.03;;;;;;;;;;6235697;28;20304;-72
2023/09/21 17:18:13;;;;;;;3.95;3.70;;;;;;;;;;6235481;28;20292;-69
2023/09/21 17:21:19;;;;;;;4.38;3.55;;;;;;;;;;6235981;28;20304;-70
2023/09/21 17:24:22;;;;;;;4.22;3.85;;;;;;;;;;6235870;28;20295;-71
2023/09/21 17:27:26;;;;;;;5.78;3.75;;;;;;;;;;6235162;28;20311;-71
2023/09/21 17:30:30;;;;;;;6.43;4.15;;;;;;;;;;6235262;28;20308;-70
2023/09/21 17:33:34;;;;;;;4.18;3.25;;;;;;;;;;6233156;28;20300;-71
2023/09/21 17:36:39;;;;;;;6.00;4.03;;;;;;;;;;6235083;28;20308;-71
2023/09/21 17:39:43;;;;;;;4.38;3.85;;;;;;;;;;6235030;28;20304;-69
2023/09/21 17:42:47;;;;;;;7.13;3.85;;;;;;;;;;6235492;28;20447;-70
2023/09/21 17:45:51;;;;;;;4.90;4.10;;;;;;;;;;6234911;28;20305;-70
2023/09/21 17:48:55;;;;;;;4.47;4.03;;;;;;;;;;6234945;28;20288;-70
2023/09/21 17:52:03;;;;;;;5.40;4.15;;;;;;;;;;6235369;28;20462;-71
2023/09/21 17:55:07;;;;;;;4.10;3.75;;;;;;;;;;6234876;28;20327;-72
2023/09/21 17:58:11;;;;;;;5.65;4.25;;;;;;;;;;6235137;28;20300;-70
2023/09/21 18:01:15;;;;;;;6.10;4.07;;;;;;;;;;6234125;28;20312;-71
2023/09/21 18:04:20;;;;;;;4.50;4.15;;;;;;;;;;6233210;28;20300;-73
2023/09/21 18:07:26;;;;;;;8.40;4.10;;;;;;;;;;6234956;28;20308;-69
2023/09/21 18:10:30;;;;;;;5.68;3.88;;;;;;;;;;6249724;28;20315;-74
2023/09/21 18:13:34;;;;;;;4.72;3.97;;;;;;;;;;6234258;28;20300;-69
2023/09/21 18:16:38;;;;;;;5.38;4.53;;;;;;;;;;6235501;28;20504;-68
2023/09/21 18:19:42;;;;;;;6.20;4.32;;;;;;;;;;6234071;28;20296;-71
2023/09/21 18:22:47;;;;;;;6.05;4.68;;;;;;;;;;6234192;28;20460;-75
2023/09/21 18:25:51;;;;;;;8.70;4.68;;;;;;;;;;6234026;28;20524;-69
2023/09/21 18:28:56;;;;;;;6.68;3.85;;;;;;;;;;6233013;28;20292;-69